createdAt,value
2023-05-22T00:00:08.940Z,24.43
2023-05-22T00:01:08.951Z,24.41
2023-05-22T00:02:08.979Z,24.44
2023-05-22T00:03:08.964Z,24.46
2023-05-22T00:04:08.973Z,24.43
2023-05-22T00:05:08.988Z,24.43
2023-05-22T00:06:08.985Z,24.43
2023-05-22T00:07:09.004Z,24.43
2023-05-22T00:08:09.002Z,24.43
2023-05-22T00:09:08.987Z,24.44
2023-05-22T00:10:09.029Z,24.41
2023-05-22T00:11:09.018Z,24.43
2023-05-22T00:12:09.022Z,24.40
2023-05-22T00:13:09.013Z,24.40
2023-05-22T00:14:09.042Z,24.41
2023-05-22T00:15:09.013Z,24.43
2023-05-22T00:16:09.044Z,24.41
2023-05-22T00:17:09.085Z,24.41
2023-05-22T00:18:09.078Z,24.39
2023-05-22T00:19:09.102Z,24.43
2023-05-22T00:20:09.064Z,24.39
2023-05-22T00:21:09.044Z,24.40
2023-05-22T00:22:09.093Z,24.41
2023-05-22T00:23:09.101Z,24.40
2023-05-22T00:24:09.060Z,24.40
2023-05-22T00:25:09.073Z,24.40
2023-05-22T00:26:09.072Z,24.41
2023-05-22T00:27:09.133Z,24.40
2023-05-22T00:28:09.072Z,24.39
2023-05-22T00:29:09.140Z,24.40
2023-05-22T00:30:09.114Z,24.37
2023-05-22T00:31:09.130Z,24.40
2023-05-22T00:32:09.161Z,24.39
2023-05-22T00:33:09.195Z,24.40
2023-05-22T00:34:09.207Z,24.36
2023-05-22T00:35:09.149Z,24.40
2023-05-22T00:36:09.190Z,24.37
2023-05-22T00:37:09.211Z,24.39
2023-05-22T00:38:09.226Z,24.36
2023-05-22T00:39:09.261Z,24.36
2023-05-22T00:40:09.227Z,24.36
2023-05-22T00:41:09.231Z,24.37
2023-05-22T00:42:09.256Z,24.36
2023-05-22T00:43:09.288Z,24.36
2023-05-22T00:44:09.271Z,24.36
2023-05-22T00:45:09.254Z,24.36
2023-05-22T00:46:09.300Z,24.36
2023-05-22T00:47:09.291Z,24.34
2023-05-22T00:48:09.351Z,24.36
2023-05-22T00:49:09.298Z,24.36
2023-05-22T00:50:09.293Z,24.33
2023-05-22T00:51:09.305Z,24.34
2023-05-22T00:52:09.322Z,24.31
2023-05-22T00:53:09.331Z,24.31
2023-05-22T00:54:09.318Z,24.31
2023-05-22T00:55:09.318Z,24.33
2023-05-22T00:56:09.333Z,24.33
2023-05-22T00:57:09.334Z,24.31
2023-05-22T00:58:09.345Z,24.30
2023-05-22T00:59:09.320Z,24.33
2023-05-22T01:00:09.376Z,24.31
2023-05-22T01:01:09.347Z,24.30
2023-05-22T01:02:09.383Z,24.31
2023-05-22T01:03:09.395Z,24.30
2023-05-22T01:04:09.422Z,24.29
2023-05-22T01:05:09.365Z,24.30
2023-05-22T01:06:09.386Z,24.30
2023-05-22T01:07:09.390Z,24.29
2023-05-22T01:08:09.487Z,24.29
2023-05-22T01:09:09.407Z,24.29
2023-05-22T01:10:09.447Z,24.27
2023-05-22T01:11:09.431Z,24.29
2023-05-22T01:12:09.448Z,24.26
2023-05-22T01:13:09.455Z,24.30
2023-05-22T01:14:09.449Z,24.27
2023-05-22T01:15:09.462Z,24.26
2023-05-22T01:16:09.488Z,24.27
2023-05-22T01:17:09.518Z,24.24
2023-05-22T01:18:09.554Z,24.29
2023-05-22T01:19:09.503Z,24.24
2023-05-22T01:20:09.525Z,24.26
2023-05-22T01:21:09.529Z,24.26
2023-05-22T01:22:09.554Z,24.26
2023-05-22T01:23:09.548Z,24.26
2023-05-22T01:24:09.555Z,24.26
2023-05-22T01:25:09.643Z,24.26
2023-05-22T01:26:09.593Z,24.26
2023-05-22T01:27:09.612Z,24.24
2023-05-22T01:28:09.615Z,24.21
2023-05-22T01:29:09.653Z,24.21
2023-05-22T01:30:09.656Z,24.21
2023-05-22T01:31:10.550Z,24.20
2023-05-22T01:32:09.712Z,24.20
2023-05-22T01:33:09.762Z,24.17
2023-05-22T01:34:09.735Z,24.19
2023-05-22T01:35:09.723Z,24.20
2023-05-22T01:36:09.756Z,24.21
2023-05-22T01:37:09.786Z,24.19
2023-05-22T01:38:09.783Z,24.20
2023-05-22T01:39:09.812Z,24.21
2023-05-22T01:40:09.842Z,24.19
2023-05-22T01:41:09.856Z,24.19
2023-05-22T01:42:09.865Z,24.20
2023-05-22T01:43:09.853Z,24.17
2023-05-22T01:44:09.914Z,24.16
2023-05-22T01:45:09.922Z,24.19
2023-05-22T01:46:10.003Z,24.17
2023-05-22T01:47:09.943Z,24.19
2023-05-22T01:48:09.955Z,24.19
2023-05-22T01:49:09.977Z,24.13
2023-05-22T01:50:09.998Z,24.15
2023-05-22T01:51:10.015Z,24.16
2023-05-22T01:52:10.022Z,24.13
2023-05-22T01:53:10.060Z,24.13
2023-05-22T01:54:10.102Z,24.12
2023-05-22T01:55:10.127Z,24.12
2023-05-22T01:56:10.145Z,24.13
2023-05-22T01:57:10.164Z,24.13
2023-05-22T01:58:10.194Z,24.10
2023-05-22T01:59:10.231Z,24.10
2023-05-22T02:00:10.244Z,24.09
2023-05-22T02:01:10.289Z,24.10
2023-05-22T02:02:10.330Z,24.10
2023-05-22T02:03:10.568Z,24.09
2023-05-22T02:04:10.365Z,24.10
2023-05-22T02:05:10.381Z,24.10
2023-05-22T02:06:10.406Z,24.09
2023-05-22T02:07:12.156Z,24.10
2023-05-22T02:08:10.466Z,24.08
2023-05-22T02:09:10.525Z,24.10
2023-05-22T02:10:10.556Z,24.08
2023-05-22T02:11:10.566Z,24.05
2023-05-22T02:12:10.602Z,24.08
2023-05-22T02:13:10.635Z,24.05
2023-05-22T02:14:10.643Z,24.06
2023-05-22T02:15:10.673Z,24.08
2023-05-22T02:16:10.795Z,24.06
2023-05-22T02:17:10.771Z,24.05
2023-05-22T02:18:10.790Z,24.05
2023-05-22T02:19:10.882Z,24.05
2023-05-22T02:20:10.857Z,24.05
2023-05-22T02:21:10.885Z,24.03
2023-05-22T02:22:10.929Z,24.06
2023-05-22T02:23:10.954Z,24.05
2023-05-22T02:24:11.009Z,24.05
2023-05-22T02:25:11.013Z,24.05
2023-05-22T02:26:11.037Z,24.03
2023-05-22T02:27:11.084Z,24.05
2023-05-22T02:28:11.111Z,24.03
2023-05-22T02:29:11.143Z,24.05
2023-05-22T02:30:11.160Z,24.05
2023-05-22T02:31:11.231Z,24.02
2023-05-22T02:32:11.226Z,24.01
2023-05-22T02:33:11.358Z,24.02
2023-05-22T02:34:11.306Z,24.02
2023-05-22T02:35:11.326Z,24.02
2023-05-22T02:36:11.368Z,24.03
2023-05-22T02:37:11.442Z,24.01
2023-05-22T02:38:11.401Z,24.01
2023-05-22T02:39:11.463Z,24.02
2023-05-22T02:40:11.499Z,23.99
2023-05-22T02:41:11.530Z,24.01
2023-05-22T02:42:11.578Z,24.01
2023-05-22T02:43:11.593Z,23.99
2023-05-22T02:44:11.626Z,23.99
2023-05-22T02:45:11.676Z,23.98
2023-05-22T02:46:11.739Z,23.98
2023-05-22T02:47:11.753Z,23.98
2023-05-22T02:48:11.821Z,23.96
2023-05-22T02:49:11.826Z,23.98
2023-05-22T02:50:11.897Z,23.96
2023-05-22T02:51:11.925Z,23.96
2023-05-22T02:52:11.927Z,23.95
2023-05-22T02:53:11.956Z,23.93
2023-05-22T02:54:12.000Z,23.95
2023-05-22T02:55:12.042Z,23.93
2023-05-22T02:56:12.084Z,23.93
2023-05-22T02:57:12.120Z,23.96
2023-05-22T02:58:12.137Z,23.95
2023-05-22T02:59:12.201Z,23.95
2023-05-22T03:00:12.205Z,23.92
2023-05-22T03:01:12.309Z,23.91
2023-05-22T03:02:12.325Z,23.93
2023-05-22T03:03:12.402Z,23.95
2023-05-22T03:04:12.513Z,23.95
2023-05-22T03:05:12.441Z,23.92
2023-05-22T03:06:12.443Z,23.91
2023-05-22T03:07:12.486Z,23.92
2023-05-22T03:08:12.553Z,23.92
2023-05-22T03:09:12.610Z,23.92
2023-05-22T03:10:12.662Z,23.92
2023-05-22T03:11:12.675Z,23.91
2023-05-22T03:12:12.746Z,23.93
2023-05-22T03:13:12.774Z,23.91
2023-05-22T03:14:12.839Z,23.89
2023-05-22T03:15:12.987Z,23.88
2023-05-22T03:16:12.941Z,23.91
2023-05-22T03:17:12.928Z,23.89
2023-05-22T03:18:13.113Z,23.89
2023-05-22T03:19:13.128Z,23.88
2023-05-22T03:20:13.100Z,23.91
2023-05-22T03:21:13.126Z,23.88
2023-05-22T03:22:13.171Z,23.91
2023-05-22T03:23:13.208Z,23.91
2023-05-22T03:24:13.239Z,23.89
2023-05-22T03:25:13.314Z,23.91
2023-05-22T03:26:13.326Z,23.89
2023-05-22T03:27:13.446Z,23.88
2023-05-22T03:28:13.428Z,23.89
2023-05-22T03:29:13.504Z,23.88
2023-05-22T03:30:13.549Z,23.89
2023-05-22T03:31:13.610Z,23.88
2023-05-22T03:32:13.629Z,23.89
2023-05-22T03:33:13.693Z,23.86
2023-05-22T03:34:13.675Z,23.89
2023-05-22T03:35:13.762Z,23.88
2023-05-22T03:36:13.836Z,23.88
2023-05-22T03:37:13.852Z,23.88
2023-05-22T03:38:13.904Z,23.89
2023-05-22T03:39:13.963Z,23.88
2023-05-22T03:40:14.008Z,23.89
2023-05-22T03:41:14.061Z,23.88
2023-05-22T03:42:14.127Z,23.88
2023-05-22T03:43:14.133Z,23.88
2023-05-22T03:44:14.204Z,23.86
2023-05-22T03:45:14.276Z,23.86
2023-05-22T03:46:14.388Z,23.86
2023-05-22T03:47:14.377Z,23.86
2023-05-22T03:48:14.453Z,23.86
2023-05-22T03:49:14.451Z,23.85
2023-05-22T03:50:14.536Z,23.86
2023-05-22T03:51:14.547Z,23.84
2023-05-22T03:52:14.613Z,23.86
2023-05-22T03:53:14.675Z,23.85
2023-05-22T03:54:14.735Z,23.82
2023-05-22T03:55:14.789Z,23.82
2023-05-22T03:56:14.881Z,23.81
2023-05-22T03:57:14.942Z,23.79
2023-05-22T03:58:15.012Z,23.82
2023-05-22T03:59:15.969Z,23.81
2023-05-22T04:00:15.096Z,23.79
2023-05-22T04:01:15.168Z,23.81
2023-05-22T04:02:15.201Z,23.79
2023-05-22T04:03:15.511Z,23.79
2023-05-22T04:04:15.325Z,23.78
2023-05-22T04:05:15.407Z,23.81
2023-05-22T04:06:15.490Z,23.82
2023-05-22T04:07:15.498Z,23.79
2023-05-22T04:08:15.576Z,23.82
2023-05-22T04:09:15.621Z,23.79
2023-05-22T04:10:15.687Z,23.81
2023-05-22T04:11:15.736Z,23.81
2023-05-22T04:12:15.819Z,23.79
2023-05-22T04:13:15.861Z,23.82
2023-05-22T04:14:15.940Z,23.81
2023-05-22T04:15:15.954Z,23.82
2023-05-22T04:16:16.052Z,23.84
2023-05-22T04:17:16.117Z,23.81
2023-05-22T04:18:16.161Z,23.82
2023-05-22T04:19:16.255Z,23.81
2023-05-22T04:20:16.284Z,23.82
2023-05-22T04:21:16.353Z,23.82
2023-05-22T04:22:16.397Z,23.82
2023-05-22T04:23:16.438Z,23.84
2023-05-22T04:24:16.517Z,23.84
2023-05-22T04:25:16.562Z,23.82
2023-05-22T04:26:16.625Z,23.79
2023-05-22T04:27:16.662Z,23.81
2023-05-22T04:28:16.729Z,23.82
2023-05-22T04:29:16.767Z,23.82
2023-05-22T04:30:16.843Z,23.82
2023-05-22T04:31:16.958Z,23.84
2023-05-22T04:32:16.983Z,23.81
2023-05-22T04:33:17.040Z,23.81
2023-05-22T04:34:17.099Z,23.84
2023-05-22T04:35:17.122Z,23.82
2023-05-22T04:36:17.190Z,23.82
2023-05-22T04:37:17.309Z,23.82
2023-05-22T04:38:17.344Z,23.79
2023-05-22T04:39:17.403Z,23.84
2023-05-22T04:40:17.436Z,23.82
2023-05-22T04:41:17.511Z,23.82
2023-05-22T04:42:17.575Z,23.81
2023-05-22T04:43:17.642Z,23.82
2023-05-22T04:44:17.675Z,23.81
2023-05-22T04:45:17.730Z,23.82
2023-05-22T04:46:17.807Z,23.82
2023-05-22T04:47:17.857Z,23.81
2023-05-22T04:48:17.892Z,23.85
2023-05-22T04:49:17.933Z,23.81
2023-05-22T04:50:18.006Z,23.84
2023-05-22T04:51:18.042Z,23.85
2023-05-22T04:52:18.086Z,23.86
2023-05-22T04:53:18.141Z,23.86
2023-05-22T04:54:18.235Z,23.85
2023-05-22T04:55:18.285Z,23.88
2023-05-22T04:56:31.765Z,23.89
2023-05-22T04:57:19.302Z,23.89
2023-05-22T04:58:18.279Z,23.91
2023-05-22T04:59:18.273Z,23.93
2023-05-22T05:00:18.282Z,23.92
2023-05-22T05:01:18.306Z,23.95
2023-05-22T05:02:18.345Z,23.93
2023-05-22T05:03:18.421Z,23.95
2023-05-22T05:04:18.274Z,23.95
2023-05-22T05:05:18.253Z,23.95
2023-05-22T05:06:18.226Z,23.95
2023-05-22T05:07:18.217Z,23.93
2023-05-22T05:08:18.277Z,23.96
2023-05-22T05:09:18.192Z,23.96
2023-05-22T05:10:18.239Z,23.99
2023-05-22T05:11:18.299Z,23.96
2023-05-22T05:12:18.326Z,23.98
2023-05-22T05:13:18.357Z,23.98
2023-05-22T05:14:18.369Z,23.98
2023-05-22T05:15:18.420Z,23.98
2023-05-22T05:16:18.468Z,23.99
2023-05-22T05:17:18.480Z,23.98
2023-05-22T05:18:18.569Z,23.98
2023-05-22T05:19:18.552Z,23.98
2023-05-22T05:20:18.559Z,23.98
2023-05-22T05:21:18.558Z,23.99
2023-05-22T05:22:18.619Z,23.99
2023-05-22T05:23:18.720Z,23.99
2023-05-22T05:24:18.662Z,24.03
2023-05-22T05:25:18.680Z,24.05
2023-05-22T05:26:18.711Z,24.02
2023-05-22T05:27:18.767Z,24.03
2023-05-22T05:28:18.744Z,24.05
2023-05-22T05:29:18.779Z,24.06
2023-05-22T05:30:20.306Z,24.08
2023-05-22T05:31:18.827Z,24.09
2023-05-22T05:32:18.952Z,24.09
2023-05-22T05:33:18.833Z,24.09
2023-05-22T05:34:18.912Z,24.10
2023-05-22T05:35:18.920Z,24.09
2023-05-22T05:36:18.921Z,24.08
2023-05-22T05:37:18.955Z,24.09
2023-05-22T05:38:18.978Z,24.10
2023-05-22T05:39:18.986Z,24.10
2023-05-22T05:40:18.993Z,24.12
2023-05-22T05:41:19.066Z,24.12
2023-05-22T05:42:19.045Z,24.12
2023-05-22T05:43:19.092Z,24.13
2023-05-22T05:44:19.058Z,24.13
2023-05-22T05:45:19.082Z,24.16
2023-05-22T05:46:19.163Z,24.17
2023-05-22T05:47:19.107Z,24.19
2023-05-22T05:48:19.112Z,24.23
2023-05-22T05:49:19.121Z,24.19
2023-05-22T05:50:19.132Z,24.23
2023-05-22T05:51:19.151Z,24.26
2023-05-22T05:52:19.131Z,24.24
2023-05-22T05:53:19.127Z,24.30
2023-05-22T05:54:19.219Z,24.33
2023-05-22T05:55:19.185Z,24.33
2023-05-22T05:56:19.189Z,24.29
2023-05-22T05:57:19.247Z,24.33
2023-05-22T05:58:19.309Z,24.34
2023-05-22T05:59:19.319Z,24.41
2023-05-22T06:00:19.375Z,24.44
2023-05-22T06:01:19.387Z,24.47
2023-05-22T06:02:19.540Z,24.48
2023-05-22T06:03:19.631Z,24.53
2023-05-22T06:04:19.590Z,24.58
2023-05-22T06:05:19.668Z,24.56
2023-05-22T06:06:19.692Z,24.61
2023-05-22T06:07:19.755Z,24.65
2023-05-22T06:08:19.808Z,24.68
2023-05-22T06:09:19.862Z,24.67
2023-05-22T06:10:19.914Z,24.71
2023-05-22T06:11:20.012Z,24.70
2023-05-22T06:12:19.980Z,24.71
2023-05-22T06:13:20.067Z,24.70
2023-05-22T06:14:20.108Z,24.71
2023-05-22T06:15:20.151Z,24.70
2023-05-22T06:16:20.244Z,24.68
2023-05-22T06:17:20.277Z,24.71
2023-05-22T06:18:20.361Z,24.70
2023-05-22T06:19:20.452Z,24.68
2023-05-22T06:20:20.472Z,24.70
2023-05-22T06:21:20.550Z,24.67
2023-05-22T06:22:20.604Z,24.67
2023-05-22T06:23:20.607Z,24.65
2023-05-22T06:24:20.651Z,24.65
2023-05-22T06:25:20.688Z,24.64
2023-05-22T06:26:20.704Z,24.63
2023-05-22T06:27:20.738Z,24.63
2023-05-22T06:28:20.728Z,24.63
2023-05-22T06:29:20.755Z,24.58
2023-05-22T06:30:38.334Z,24.61
2023-05-22T06:31:21.741Z,24.60
2023-05-22T06:32:20.839Z,24.60
2023-05-22T06:33:20.777Z,24.60
2023-05-22T06:34:20.822Z,24.58
2023-05-22T06:35:20.704Z,24.56
2023-05-22T06:36:20.695Z,24.58
2023-05-22T06:37:20.757Z,24.54
2023-05-22T06:38:20.766Z,24.57
2023-05-22T06:39:20.706Z,24.56
2023-05-22T06:40:20.785Z,24.56
2023-05-22T06:41:20.680Z,24.56
2023-05-22T06:42:20.691Z,24.51
2023-05-22T06:43:20.726Z,24.56
2023-05-22T06:44:20.654Z,24.58
2023-05-22T06:45:20.658Z,24.63
2023-05-22T06:46:20.801Z,24.65
2023-05-22T06:47:20.727Z,24.68
2023-05-22T06:48:20.790Z,24.70
2023-05-22T06:49:20.837Z,24.72
2023-05-22T06:50:20.863Z,24.72
2023-05-22T06:51:20.908Z,24.75
2023-05-22T06:52:20.957Z,24.78
2023-05-22T06:53:21.008Z,24.79
2023-05-22T06:54:21.060Z,24.82
2023-05-22T06:55:21.093Z,24.85
2023-05-22T06:56:21.123Z,24.92
2023-05-22T06:57:21.125Z,24.93
2023-05-22T06:58:21.218Z,24.99
2023-05-22T06:59:21.287Z,25.01
2023-05-22T07:00:22.044Z,25.01
2023-05-22T07:01:21.252Z,25.08
2023-05-22T07:02:21.286Z,25.10
2023-05-22T07:03:21.337Z,25.13
2023-05-22T07:04:21.277Z,25.20
2023-05-22T07:05:21.376Z,25.23
2023-05-22T07:06:21.345Z,25.23
2023-05-22T07:07:21.335Z,25.28
2023-05-22T07:08:21.303Z,25.29
2023-05-22T07:09:21.322Z,25.30
2023-05-22T07:10:21.275Z,25.36
2023-05-22T07:11:21.408Z,25.36
2023-05-22T07:12:21.286Z,25.37
2023-05-22T07:13:21.307Z,25.41
2023-05-22T07:14:21.280Z,25.41
2023-05-22T07:15:21.317Z,25.46
2023-05-22T07:16:21.308Z,25.44
2023-05-22T07:17:21.323Z,25.47
2023-05-22T07:18:21.369Z,25.50
2023-05-22T07:19:21.469Z,25.48
2023-05-22T07:20:21.456Z,25.50
2023-05-22T07:21:21.496Z,25.53
2023-05-22T07:22:21.563Z,25.54
2023-05-22T07:23:21.607Z,25.57
2023-05-22T07:24:21.670Z,25.58
2023-05-22T07:25:21.738Z,25.57
2023-05-22T07:26:21.755Z,25.60
2023-05-22T07:27:21.841Z,25.61
2023-05-22T07:28:21.911Z,25.61
2023-05-22T07:29:23.162Z,25.63
2023-05-22T07:30:22.011Z,25.64
2023-05-22T07:31:22.146Z,25.65
2023-05-22T07:32:22.136Z,25.64
2023-05-22T07:33:22.220Z,25.68
2023-05-22T07:34:22.204Z,25.70
2023-05-22T07:35:22.285Z,25.70
2023-05-22T07:36:22.366Z,25.68
2023-05-22T07:37:22.413Z,25.68
2023-05-22T07:38:22.416Z,25.70
2023-05-22T07:39:22.490Z,25.71
2023-05-22T07:40:23.788Z,25.73
2023-05-22T07:41:22.554Z,25.70
2023-05-22T07:42:22.618Z,25.68
2023-05-22T07:43:22.668Z,25.67
2023-05-22T07:44:22.740Z,25.70
2023-05-22T07:45:22.835Z,25.68
2023-05-22T07:46:22.870Z,25.67
2023-05-22T07:47:22.947Z,25.65
2023-05-22T07:48:22.969Z,25.65
2023-05-22T07:49:23.021Z,25.61
2023-05-22T07:50:23.040Z,25.61
2023-05-22T07:51:23.096Z,25.58
2023-05-22T07:52:23.106Z,25.57
2023-05-22T07:53:23.145Z,25.56
2023-05-22T07:54:23.183Z,25.51
2023-05-22T07:55:23.144Z,25.50
2023-05-22T07:56:23.171Z,25.50
2023-05-22T07:57:23.186Z,25.48
2023-05-22T07:58:23.157Z,25.47
2023-05-22T07:59:23.193Z,25.47
2023-05-22T08:00:23.162Z,25.44
2023-05-22T08:01:23.160Z,25.44
2023-05-22T08:02:23.313Z,25.44
2023-05-22T08:03:24.330Z,25.43
2023-05-22T08:04:23.282Z,25.41
2023-05-22T08:05:23.181Z,25.43
2023-05-22T08:06:23.156Z,25.39
2023-05-22T08:07:23.180Z,25.41
2023-05-22T08:08:23.184Z,25.39
2023-05-22T08:09:23.149Z,25.36
2023-05-22T08:10:23.153Z,25.37
2023-05-22T08:11:23.193Z,25.37
2023-05-22T08:12:23.195Z,25.36
2023-05-22T08:13:23.210Z,25.34
2023-05-22T08:14:23.213Z,25.37
2023-05-22T08:15:23.167Z,25.37
2023-05-22T08:16:23.258Z,25.34
2023-05-22T08:17:23.210Z,25.34
2023-05-22T08:18:23.194Z,25.33
2023-05-22T08:19:23.310Z,25.33
2023-05-22T08:20:23.265Z,25.33
2023-05-22T08:21:23.203Z,25.33
2023-05-22T08:22:23.200Z,25.34
2023-05-22T08:23:23.212Z,25.33
2023-05-22T08:24:23.197Z,25.33
2023-05-22T08:25:23.230Z,25.32
2023-05-22T08:26:23.219Z,25.34
2023-05-22T08:27:23.233Z,25.32
2023-05-22T08:28:23.204Z,25.33
2023-05-22T08:29:23.221Z,25.30
2023-05-22T08:30:23.207Z,25.33
2023-05-22T08:31:23.233Z,25.33
2023-05-22T08:32:23.244Z,25.34
2023-05-22T08:33:23.207Z,25.34
2023-05-22T08:34:23.192Z,25.34
2023-05-22T08:35:23.281Z,25.34
2023-05-22T08:36:23.210Z,25.36
2023-05-22T08:37:23.219Z,25.36
2023-05-22T08:38:23.231Z,25.36
2023-05-22T08:39:23.248Z,25.40
2023-05-22T08:40:23.269Z,25.43
2023-05-22T08:41:23.243Z,25.44
2023-05-22T08:42:23.229Z,25.46
2023-05-22T08:43:23.255Z,25.44
2023-05-22T08:44:23.233Z,25.46
2023-05-22T08:45:23.283Z,25.48
2023-05-22T08:46:23.356Z,25.51
2023-05-22T08:47:23.421Z,25.54
2023-05-22T08:48:23.433Z,25.54
2023-05-22T08:49:23.999Z,25.53
2023-05-22T08:50:23.540Z,25.56
2023-05-22T08:51:23.621Z,25.57
2023-05-22T08:52:23.641Z,25.57
2023-05-22T08:53:23.695Z,25.58
2023-05-22T08:54:23.814Z,25.58
2023-05-22T08:55:23.860Z,25.58
2023-05-22T08:56:23.896Z,25.61
2023-05-22T08:57:23.936Z,25.61
2023-05-22T08:58:23.973Z,25.61
2023-05-22T08:59:24.064Z,25.63
2023-05-22T09:00:24.175Z,25.61
2023-05-22T09:01:24.111Z,25.65
2023-05-22T09:02:24.121Z,25.65
2023-05-22T09:03:24.191Z,25.64
2023-05-22T09:04:24.239Z,25.67
2023-05-22T09:05:24.157Z,25.67
2023-05-22T09:06:24.210Z,25.67
2023-05-22T09:07:24.226Z,25.71
2023-05-22T09:08:24.261Z,25.70
2023-05-22T09:09:24.219Z,25.70
2023-05-22T09:10:24.266Z,25.73
2023-05-22T09:11:24.260Z,25.74
2023-05-22T09:12:24.270Z,25.75
2023-05-22T09:13:24.242Z,25.75
2023-05-22T09:14:24.223Z,25.75
2023-05-22T09:15:24.267Z,25.77
2023-05-22T09:16:24.285Z,25.74
2023-05-22T09:17:24.327Z,25.75
2023-05-22T09:18:24.299Z,25.77
2023-05-22T09:19:24.266Z,25.78
2023-05-22T09:20:24.308Z,25.80
2023-05-22T09:21:29.962Z,25.80
2023-05-22T09:22:25.289Z,25.81
2023-05-22T09:23:25.082Z,25.85
2023-05-22T09:24:24.334Z,25.84
2023-05-22T09:25:24.303Z,25.88
2023-05-22T09:26:24.294Z,25.87
2023-05-22T09:27:24.246Z,25.84
2023-05-22T09:28:24.247Z,25.88
2023-05-22T09:29:24.269Z,25.89
2023-05-22T09:30:24.259Z,25.89
2023-05-22T09:31:24.366Z,25.88
2023-05-22T09:32:24.354Z,25.89
2023-05-22T09:33:24.233Z,25.92
2023-05-22T09:34:24.269Z,25.96
2023-05-22T09:35:24.291Z,25.96
2023-05-22T09:36:24.293Z,25.98
2023-05-22T09:37:24.324Z,25.99
2023-05-22T09:38:24.377Z,25.99
2023-05-22T09:39:24.376Z,25.99
2023-05-22T09:40:24.423Z,25.99
2023-05-22T09:41:24.436Z,25.98
2023-05-22T09:42:24.536Z,26.02
2023-05-22T09:43:24.555Z,26.03
2023-05-22T09:44:24.524Z,26.05
2023-05-22T09:45:24.569Z,26.08
2023-05-22T09:46:24.620Z,26.11
2023-05-22T09:47:24.662Z,26.09
2023-05-22T09:48:24.629Z,26.11
2023-05-22T09:49:24.637Z,26.12
2023-05-22T09:50:24.798Z,26.11
2023-05-22T09:51:24.612Z,26.12
2023-05-22T09:52:24.635Z,26.12
2023-05-22T09:53:24.626Z,26.13
2023-05-22T09:54:24.643Z,26.13
2023-05-22T09:55:24.647Z,26.09
2023-05-22T09:56:37.755Z,26.11
2023-05-22T09:57:25.683Z,26.09
2023-05-22T09:58:24.668Z,26.09
2023-05-22T09:59:24.681Z,26.08
2023-05-22T10:00:24.624Z,26.02
2023-05-22T10:01:24.708Z,26.05
2023-05-22T10:02:24.688Z,26.03
2023-05-22T10:03:24.625Z,26.01
2023-05-22T10:04:24.691Z,26.02
2023-05-22T10:05:24.611Z,26.01
2023-05-22T10:06:24.614Z,25.98
2023-05-22T10:07:24.621Z,25.98
2023-05-22T10:08:24.624Z,25.99
2023-05-22T10:09:24.587Z,25.98
2023-05-22T10:10:24.589Z,25.98
2023-05-22T10:11:24.595Z,25.96
2023-05-22T10:12:24.569Z,25.96
2023-05-22T10:13:24.632Z,25.94
2023-05-22T10:14:24.581Z,25.94
2023-05-22T10:15:24.587Z,25.94
2023-05-22T10:16:24.633Z,25.92
2023-05-22T10:17:24.646Z,25.92
2023-05-22T10:18:24.699Z,25.91
2023-05-22T10:19:24.713Z,25.91
2023-05-22T10:20:24.725Z,25.89
2023-05-22T10:21:24.806Z,25.89
2023-05-22T10:22:25.614Z,25.91
2023-05-22T10:23:24.850Z,25.88
2023-05-22T10:24:24.881Z,25.89
2023-05-22T10:25:24.900Z,25.88
2023-05-22T10:26:24.949Z,25.88
2023-05-22T10:27:25.053Z,25.88
2023-05-22T10:28:25.013Z,25.88
2023-05-22T10:29:25.016Z,25.87
2023-05-22T10:30:25.091Z,25.88
2023-05-22T10:31:25.081Z,25.87
2023-05-22T10:32:25.130Z,25.85
2023-05-22T10:33:25.168Z,25.89
2023-05-22T10:34:25.162Z,25.87
2023-05-22T10:35:25.173Z,25.88
2023-05-22T10:36:25.440Z,25.87
2023-05-22T10:37:25.273Z,25.87
2023-05-22T10:38:25.277Z,25.88
2023-05-22T10:39:25.298Z,25.87
2023-05-22T10:40:25.404Z,25.85
2023-05-22T10:41:25.370Z,25.89
2023-05-22T10:42:25.422Z,25.94
2023-05-22T10:43:25.545Z,25.91
2023-05-22T10:44:25.414Z,25.95
2023-05-22T10:45:25.452Z,25.94
2023-05-22T10:46:25.688Z,25.94
2023-05-22T10:47:25.507Z,25.95
2023-05-22T10:48:25.628Z,25.95
2023-05-22T10:49:25.625Z,25.98
2023-05-22T10:50:25.680Z,25.98
2023-05-22T10:51:25.683Z,25.99
2023-05-22T10:52:25.728Z,25.99
2023-05-22T10:53:25.783Z,26.01
2023-05-22T10:54:25.757Z,26.06
2023-05-22T10:55:25.799Z,26.05
2023-05-22T10:56:25.986Z,26.08
2023-05-22T10:57:25.946Z,26.08
2023-05-22T10:58:26.005Z,26.09
2023-05-22T10:59:26.113Z,26.09
2023-05-22T11:00:26.099Z,26.12
2023-05-22T11:01:26.217Z,26.12
2023-05-22T11:02:26.351Z,26.13
2023-05-22T11:03:26.347Z,26.12
2023-05-22T11:04:26.375Z,26.12
2023-05-22T11:05:26.388Z,26.12
2023-05-22T11:06:26.462Z,26.15
2023-05-22T11:07:26.504Z,26.16
2023-05-22T11:08:26.571Z,26.16
2023-05-22T11:09:26.594Z,26.18
2023-05-22T11:10:26.663Z,26.16
2023-05-22T11:11:26.695Z,26.19
2023-05-22T11:12:26.736Z,26.18
2023-05-22T11:13:28.726Z,26.20
2023-05-22T11:14:26.975Z,26.23
2023-05-22T11:15:27.110Z,26.22
2023-05-22T11:16:27.105Z,26.23
2023-05-22T11:17:27.226Z,26.23
2023-05-22T11:18:27.199Z,26.25
2023-05-22T11:19:27.279Z,26.25
2023-05-22T11:20:27.279Z,26.26
2023-05-22T11:21:27.302Z,26.25
2023-05-22T11:22:27.330Z,26.29
2023-05-22T11:23:27.357Z,26.29
2023-05-22T11:24:27.393Z,26.29
2023-05-22T11:25:27.418Z,26.29
2023-05-22T11:26:28.203Z,26.32
2023-05-22T11:27:27.477Z,26.30
2023-05-22T11:28:27.485Z,26.35
2023-05-22T11:29:27.555Z,26.30
2023-05-22T11:30:27.571Z,26.35
2023-05-22T11:31:27.698Z,26.36
2023-05-22T11:32:27.599Z,26.33
2023-05-22T11:33:27.634Z,26.35
2023-05-22T11:34:27.776Z,26.36
2023-05-22T11:35:27.672Z,26.35
2023-05-22T11:36:27.720Z,26.36
2023-05-22T11:37:27.758Z,26.36
2023-05-22T11:38:27.818Z,26.37
2023-05-22T11:39:27.849Z,26.37
2023-05-22T11:40:27.862Z,26.39
2023-05-22T11:41:27.879Z,26.39
2023-05-22T11:42:27.927Z,26.40
2023-05-22T11:43:27.977Z,26.39
2023-05-22T11:44:28.068Z,26.42
2023-05-22T11:45:28.052Z,26.40
2023-05-22T11:46:28.120Z,26.42
2023-05-22T11:47:28.271Z,26.40
2023-05-22T11:48:28.166Z,26.39
2023-05-22T11:49:28.255Z,26.42
2023-05-22T11:50:41.654Z,26.36
2023-05-22T11:51:29.263Z,26.37
2023-05-22T11:52:28.257Z,26.36
2023-05-22T11:53:28.256Z,26.39
2023-05-22T11:54:28.252Z,26.39
2023-05-22T11:55:28.247Z,26.40
2023-05-22T11:56:28.210Z,26.39
2023-05-22T11:57:28.243Z,26.40
2023-05-22T11:58:28.252Z,26.39
2023-05-22T11:59:28.216Z,26.39
2023-05-22T12:00:28.225Z,26.42
2023-05-22T12:01:28.203Z,26.40
2023-05-22T12:02:28.312Z,26.43
2023-05-22T12:03:28.507Z,26.40
2023-05-22T12:04:28.393Z,26.42
2023-05-22T12:05:28.429Z,26.40
2023-05-22T12:06:28.497Z,26.40
2023-05-22T12:07:28.556Z,26.42
2023-05-22T12:08:28.594Z,26.37
2023-05-22T12:09:28.651Z,26.40
2023-05-22T12:10:28.703Z,26.40
2023-05-22T12:11:28.782Z,26.39
2023-05-22T12:12:28.797Z,26.37
2023-05-22T12:13:28.879Z,26.37
2023-05-22T12:14:28.982Z,26.39
2023-05-22T12:15:28.992Z,26.42
2023-05-22T12:16:29.068Z,26.42
2023-05-22T12:17:29.122Z,26.40
2023-05-22T12:18:29.199Z,26.42
2023-05-22T12:19:29.494Z,26.43
2023-05-22T12:20:29.310Z,26.42
2023-05-22T12:21:29.351Z,26.40
2023-05-22T12:22:29.428Z,26.40
2023-05-22T12:23:29.456Z,26.42
2023-05-22T12:24:29.526Z,26.40
2023-05-22T12:25:29.568Z,26.42
2023-05-22T12:26:29.664Z,26.43
2023-05-22T12:27:31.692Z,26.43
2023-05-22T12:28:29.685Z,26.44
2023-05-22T12:29:29.681Z,26.43
2023-05-22T12:30:29.681Z,26.43
2023-05-22T12:31:29.683Z,26.46
2023-05-22T12:32:29.897Z,26.47
2023-05-22T12:33:29.670Z,26.46
2023-05-22T12:34:29.652Z,26.47
2023-05-22T12:35:29.726Z,26.50
2023-05-22T12:36:29.625Z,26.51
2023-05-22T12:37:29.602Z,26.47
2023-05-22T12:38:29.653Z,26.51
2023-05-22T12:39:29.577Z,26.51
2023-05-22T12:40:29.590Z,26.50
2023-05-22T12:41:29.565Z,26.51
2023-05-22T12:42:29.586Z,26.48
2023-05-22T12:43:29.566Z,26.48
2023-05-22T12:44:29.574Z,26.51
2023-05-22T12:45:29.581Z,26.50
2023-05-22T12:46:29.582Z,26.51
2023-05-22T12:47:29.559Z,26.51
2023-05-22T12:48:29.546Z,26.50
2023-05-22T12:49:29.523Z,26.50
2023-05-22T12:50:29.510Z,26.48
2023-05-22T12:51:29.606Z,26.51
2023-05-22T12:52:29.478Z,26.50